Time;durP1;ratioP1;P1;durP2;ratioP2;P2;SDS_P1;SDS_P2;PMS_P1;PMS_P2;Temp;Humidity;BMP_temperature;BMP_pressure;BME280_temperature;BME280_humidity;BME280_pressure;Samples;Min_cycle;Max_cycle;Signal;HPM_P1;HPM_P2
2023/06/12 00:00:22;;;;;;;4.28;3.88;;;21.50;53.80;;;;;;2083053;28;20025;-70
2023/06/12 00:01:23;;;;;;;4.05;3.67;;;21.50;54.10;;;;;;2082473;28;20489;-70
2023/06/12 00:02:23;;;;;;;4.68;3.88;;;21.50;54.30;;;;;;2084331;28;20029;-70
2023/06/12 00:03:25;;;;;;;4.28;3.53;;;21.50;54.30;;;;;;2083731;28;20096;-70
2023/06/12 00:04:25;;;;;;;4.75;3.80;;;21.40;54.30;;;;;;2081821;28;20043;-70
2023/06/12 00:05:27;;;;;;;3.83;3.53;;;21.40;54.20;;;;;;2083137;28;20021;-70
2023/06/12 00:06:28;;;;;;;4.22;3.78;;;21.40;54.50;;;;;;2083395;28;20017;-70
2023/06/12 00:07:30;;;;;;;4.15;3.75;;;21.30;54.50;;;;;;2084266;28;20039;-70
2023/06/12 00:08:34;;;;;;;3.85;3.42;;;21.30;54.60;;;;;;2082118;28;20381;-70
2023/06/12 00:09:35;;;;;;;5.05;3.60;;;21.30;55.00;;;;;;2082048;28;20064;-70
2023/06/12 00:10:35;;;;;;;3.90;3.38;;;21.20;54.90;;;;;;2082605;28;20029;-70
2023/06/12 00:11:40;;;;;;;4.10;3.70;;;21.20;55.00;;;;;;2083297;28;20032;-70
2023/06/12 00:12:41;;;;;;;4.63;4.13;;;21.20;55.90;;;;;;2082439;28;20041;-70
2023/06/12 00:13:43;;;;;;;4.55;4.13;;;21.10;54.90;;;;;;2083380;28;20477;-70
2023/06/12 00:14:43;;;;;;;4.28;3.65;;;21.10;55.30;;;;;;2083663;28;20025;-70
2023/06/12 00:15:44;;;;;;;4.88;3.88;;;21.00;55.30;;;;;;2082368;28;20021;-70
2023/06/12 00:16:44;;;;;;;3.90;3.60;;;21.00;55.40;;;;;;2081589;28;20024;-70
2023/06/12 00:17:45;;;;;;;4.45;4.05;;;21.00;55.60;;;;;;2083985;28;20475;-70
2023/06/12 00:18:46;;;;;;;5.75;3.83;;;21.00;55.60;;;;;;2084419;28;20374;-70
2023/06/12 00:19:47;;;;;;;4.15;3.67;;;20.90;55.90;;;;;;2083442;28;20061;-70
2023/06/12 00:20:47;;;;;;;4.10;3.75;;;20.90;55.70;;;;;;2082626;28;20048;-70
2023/06/12 00:21:48;;;;;;;5.32;4.13;;;20.90;56.00;;;;;;2082943;28;20116;-70
2023/06/12 00:22:50;;;;;;;4.57;4.13;;;20.80;55.90;;;;;;2083653;28;20024;-70
2023/06/12 00:23:51;;;;;;;4.00;3.70;;;20.80;55.60;;;;;;2082895;28;20029;-70
2023/06/12 00:24:51;;;;;;;4.32;3.83;;;20.80;55.90;;;;;;2081652;28;20037;-70
2023/06/12 00:25:52;;;;;;;4.85;3.95;;;20.70;56.00;;;;;;2084475;28;20037;-70
2023/06/12 00:26:52;;;;;;;5.35;3.60;;;20.70;56.20;;;;;;2082905;28;20036;-70
2023/06/12 00:27:53;;;;;;;9.13;3.95;;;20.70;56.50;;;;;;2082850;28;20022;-70
2023/06/12 00:28:53;;;;;;;4.10;3.70;;;20.70;56.30;;;;;;2080441;28;20064;-70
2023/06/12 00:29:54;;;;;;;4.00;3.60;;;20.70;56.60;;;;;;2081054;28;20032;-70
2023/06/12 00:30:54;;;;;;;4.53;3.63;;;20.60;56.40;;;;;;2083453;28;20107;-70
2023/06/12 00:31:55;;;;;;;3.60;3.15;;;20.60;56.40;;;;;;2082766;28;20053;-70
2023/06/12 00:32:55;;;;;;;3.60;3.33;;;20.60;56.80;;;;;;2084765;28;20030;-70
2023/06/12 00:33:56;;;;;;;4.72;3.30;;;20.50;56.80;;;;;;2083453;28;20025;-70
2023/06/12 00:34:56;;;;;;;5.35;3.75;;;20.50;56.60;;;;;;2083151;28;20462;-70
2023/06/12 00:35:57;;;;;;;5.85;3.70;;;20.50;56.90;;;;;;2082746;28;20775;-70
2023/06/12 00:36:57;;;;;;;3.92;3.63;;;20.40;57.10;;;;;;2082561;28;20064;-70
2023/06/12 00:37:59;;;;;;;4.63;3.58;;;20.40;56.90;;;;;;2080207;28;20083;-70
2023/06/12 00:39:00;;;;;;;3.85;3.50;;;20.30;56.50;;;;;;2082731;28;20087;-70
2023/06/12 00:40:00;;;;;;;3.97;3.67;;;20.30;57.20;;;;;;2081262;28;20115;-70
2023/06/12 00:41:01;;;;;;;3.63;3.17;;;20.30;56.60;;;;;;2082173;28;20036;-70
2023/06/12 00:42:01;;;;;;;5.13;3.83;;;20.30;56.90;;;;;;2082177;28;20115;-70
2023/06/12 00:43:02;;;;;;;4.38;3.92;;;20.30;57.00;;;;;;2082857;28;20029;-70
2023/06/12 00:44:03;;;;;;;4.80;4.20;;;20.20;56.90;;;;;;2082518;28;20079;-70
2023/06/12 00:45:05;;;;;;;5.43;3.75;;;20.20;57.00;;;;;;2082897;28;20060;-70
2023/06/12 00:46:06;;;;;;;6.05;3.67;;;20.20;57.00;;;;;;2081809;28;20025;-70
2023/06/12 00:47:09;;;;;;;4.10;3.70;;;20.20;56.80;;;;;;2082443;28;20187;-70
2023/06/12 00:48:10;;;;;;;5.45;4.43;;;20.20;57.10;;;;;;2084062;28;20108;-70
2023/06/12 00:49:11;;;;;;;4.38;3.80;;;20.10;57.80;;;;;;2081688;28;20017;-70
2023/06/12 00:50:12;;;;;;;4.20;3.80;;;20.10;57.80;;;;;;2080915;28;20083;-70
2023/06/12 00:51:13;;;;;;;4.93;4.05;;;20.10;57.80;;;;;;2082691;28;20017;-70
2023/06/12 00:52:15;;;;;;;5.38;3.58;;;20.10;57.50;;;;;;2083166;28;20025;-70
2023/06/12 00:53:16;;;;;;;7.93;4.47;;;20.10;57.20;;;;;;2080959;28;20032;-70
2023/06/12 00:54:16;;;;;;;6.07;4.18;;;20.00;57.30;;;;;;2082205;28;20028;-70
2023/06/12 00:55:17;;;;;;;4.07;3.50;;;20.10;57.80;;;;;;2082989;28;20096;-70
2023/06/12 00:56:17;;;;;;;3.47;3.17;;;20.00;58.10;;;;;;2083562;28;20025;-70
2023/06/12 00:57:18;;;;;;;4.85;3.80;;;20.00;57.70;;;;;;2083903;28;20474;-70
2023/06/12 00:58:19;;;;;;;4.70;3.88;;;20.00;59.00;;;;;;2082257;28;20094;-70
2023/06/12 00:59:20;;;;;;;4.13;3.72;;;19.90;58.20;;;;;;2079411;28;20560;-70
2023/06/12 01:00:20;;;;;;;3.85;3.47;;;19.90;58.60;;;;;;2083549;28;20032;-70
2023/06/12 01:01:25;;;;;;;5.75;3.95;;;19.90;58.80;;;;;;2082412;28;20032;-70
2023/06/12 01:02:26;;;;;;;4.95;3.78;;;19.90;58.40;;;;;;2085798;28;20151;-70
2023/06/12 01:03:26;;;;;;;4.95;3.97;;;19.80;58.70;;;;;;2085360;28;20025;-70
2023/06/12 01:04:28;;;;;;;5.25;3.97;;;19.80;59.00;;;;;;2083308;28;20132;-70
2023/06/12 01:05:33;;;;;;;3.58;3.28;;;19.80;58.90;;;;;;2082911;28;20377;-70
2023/06/12 01:06:45;;;;;;;7.50;3.53;;;19.80;58.60;;;;;;2082197;28;20501;-70
2023/06/12 01:08:15;;;;;;;3.72;3.53;;;19.70;59.40;;;;;;2080769;28;20497;-70
2023/06/12 01:09:32;;;;;;;4.20;3.90;;;19.70;59.80;;;;;;2081524;28;20103;-70
2023/06/12 01:11:00;;;;;;;4.20;3.80;;;19.60;59.70;;;;;;2081253;28;20045;-70
2023/06/12 01:12:01;;;;;;;4.57;4.18;;;19.60;59.40;;;;;;2082579;28;20028;-70
2023/06/12 01:13:03;;;;;;;4.93;3.30;;;19.60;59.50;;;;;;2081975;28;20465;-70
2023/06/12 01:14:04;;;;;;;5.53;3.88;;;19.60;59.70;;;;;;2083935;28;20021;-70
2023/06/12 01:15:06;;;;;;;4.03;3.65;;;19.50;59.80;;;;;;2082004;28;20037;-70
2023/06/12 01:16:06;;;;;;;4.85;4.35;;;19.50;60.00;;;;;;2083286;28;20095;-70
2023/06/12 01:17:07;;;;;;;4.28;3.88;;;19.50;59.90;;;;;;2082722;28;20064;-70
2023/06/12 01:18:08;;;;;;;4.60;3.97;;;19.40;59.70;;;;;;2080610;28;20060;-70
2023/06/12 01:19:10;;;;;;;4.28;3.97;;;19.50;60.30;;;;;;2082613;28;20025;-70
2023/06/12 01:20:12;;;;;;;4.55;3.53;;;19.40;60.40;;;;;;2082254;28;20035;-70
2023/06/12 01:21:22;;;;;;;5.47;3.88;;;19.40;60.20;;;;;;2080678;28;20037;-70
2023/06/12 01:22:26;;;;;;;4.60;3.75;;;19.40;60.00;;;;;;2082753;28;20110;-70
2023/06/12 01:23:43;;;;;;;7.05;3.97;;;19.40;60.60;;;;;;2082219;28;20052;-70
2023/06/12 01:25:00;;;;;;;4.72;4.30;;;19.30;61.10;;;;;;2081456;28;20029;-70
2023/06/12 01:26:43;;;;;;;3.72;3.22;;;19.30;61.20;;;;;;2084269;28;20551;-70
2023/06/12 01:28:07;;;;;;;4.70;4.28;;;19.20;60.90;;;;;;2081911;28;20503;-70
2023/06/12 01:29:27;;;;;;;6.00;4.38;;;19.20;60.90;;;;;;2084285;28;20033;-70
2023/06/12 01:30:55;;;;;;;4.35;3.80;;;19.10;61.60;;;;;;2082055;28;20028;-70
2023/06/12 01:32:12;;;;;;;5.03;3.88;;;19.10;61.30;;;;;;2082832;28;20013;-70
2023/06/12 01:33:20;;;;;;;4.35;3.92;;;19.10;61.90;;;;;;2081418;28;20036;-70
2023/06/12 01:34:26;;;;;;;4.05;3.75;;;19.10;61.20;;;;;;2085402;28;20033;-70
2023/06/12 01:35:30;;;;;;;6.35;3.58;;;19.00;61.70;;;;;;2080898;28;20026;-70
2023/06/12 01:36:37;;;;;;;4.45;4.05;;;19.00;61.20;;;;;;2083081;28;20101;-70
2023/06/12 01:37:50;;;;;;;4.30;3.90;;;19.00;61.20;;;;;;2082271;28;20021;-70
2023/06/12 01:38:55;;;;;;;7.28;4.22;;;19.00;61.70;;;;;;2083341;28;20052;-70
2023/06/12 01:39:58;;;;;;;4.50;4.10;;;19.00;61.80;;;;;;2081803;28;20576;-70
2023/06/12 01:41:00;;;;;;;4.13;3.75;;;19.00;61.40;;;;;;2083183;28;20124;-70
2023/06/12 01:42:01;;;;;;;4.80;4.28;;;18.90;61.50;;;;;;2083029;28;20068;-70
2023/06/12 01:43:01;;;;;;;4.43;3.85;;;18.90;61.80;;;;;;2082516;28;20493;-70
2023/06/12 01:44:09;;;;;;;4.18;3.88;;;18.90;62.10;;;;;;2082004;28;20544;-70
2023/06/12 01:45:10;;;;;;;4.75;4.30;;;18.90;62.40;;;;;;2083595;28;20081;-70
2023/06/12 01:46:10;;;;;;;4.70;4.30;;;18.90;62.80;;;;;;2082092;28;20032;-70
2023/06/12 01:47:11;;;;;;;4.97;4.03;;;18.90;62.90;;;;;;2082398;28;20025;-70
2023/06/12 01:48:13;;;;;;;4.38;3.97;;;18.80;62.60;;;;;;2082740;28;20913;-70
2023/06/12 01:49:14;;;;;;;4.38;3.90;;;18.90;62.60;;;;;;2083621;28;20526;-70
2023/06/12 01:50:15;;;;;;;4.50;4.10;;;18.80;62.40;;;;;;2082010;28;20428;-70
2023/06/12 01:51:15;;;;;;;4.90;4.50;;;18.80;62.30;;;;;;2082684;28;20036;-70
2023/06/12 01:52:16;;;;;;;4.55;4.15;;;18.80;62.40;;;;;;2081289;28;20089;-70
2023/06/12 01:53:16;;;;;;;5.65;4.75;;;18.80;62.40;;;;;;2081757;28;20080;-70
2023/06/12 01:54:20;;;;;;;6.10;4.53;;;18.80;62.90;;;;;;2082175;28;20056;-70
2023/06/12 01:55:21;;;;;;;5.20;4.70;;;18.80;62.40;;;;;;2081432;28;20029;-70
2023/06/12 01:56:25;;;;;;;4.88;4.07;;;18.80;62.30;;;;;;2082409;28;20055;-70
2023/06/12 01:57:27;;;;;;;8.07;4.65;;;18.80;62.80;;;;;;2083029;28;20108;-70
2023/06/12 01:58:28;;;;;;;4.75;4.10;;;18.80;63.10;;;;;;2083809;28;20092;-70
2023/06/12 01:59:28;;;;;;;5.22;4.72;;;18.80;63.60;;;;;;2083002;28;20021;-70
2023/06/12 02:00:30;;;;;;;4.78;4.35;;;18.70;62.80;;;;;;2081939;28;20029;-70
2023/06/12 02:01:30;;;;;;;5.18;4.13;;;18.70;63.60;;;;;;2083087;28;20087;-70
2023/06/12 02:02:34;;;;;;;5.15;4.65;;;18.70;63.00;;;;;;2080981;28;20100;-70
2023/06/12 02:03:36;;;;;;;5.82;5.22;;;18.70;62.80;;;;;;2080985;28;20057;-70
2023/06/12 02:04:37;;;;;;;6.30;4.97;;;18.70;63.00;;;;;;2082444;28;20100;-70
2023/06/12 02:05:38;;;;;;;5.65;4.68;;;18.70;63.20;;;;;;2082837;28;20025;-70
2023/06/12 02:06:38;;;;;;;5.60;4.80;;;18.70;63.60;;;;;;2083747;28;20057;-70
2023/06/12 02:07:39;;;;;;;5.68;5.18;;;18.60;63.50;;;;;;2083991;28;20028;-70
2023/06/12 02:08:40;;;;;;;5.45;4.45;;;18.60;63.50;;;;;;2081478;28;20013;-70
2023/06/12 02:09:40;;;;;;;8.07;4.95;;;18.60;63.30;;;;;;2081214;28;20049;-70
2023/06/12 02:10:41;;;;;;;6.10;5.28;;;18.60;63.90;;;;;;2083940;28;20021;-70
2023/06/12 02:11:42;;;;;;;6.07;5.07;;;18.60;63.90;;;;;;2082734;28;20389;-70
2023/06/12 02:12:43;;;;;;;7.40;5.78;;;18.60;63.60;;;;;;2081766;28;20100;-70
2023/06/12 02:13:44;;;;;;;6.32;4.72;;;18.60;63.90;;;;;;2084221;28;20028;-70
2023/06/12 02:14:45;;;;;;;5.40;4.90;;;18.60;63.70;;;;;;2082591;28;20021;-70
2023/06/12 02:15:46;;;;;;;5.53;4.97;;;18.60;63.70;;;;;;2080410;28;20021;-70
2023/06/12 02:16:47;;;;;;;6.22;5.00;;;18.60;64.10;;;;;;2082251;28;20112;-70
2023/06/12 02:17:48;;;;;;;6.05;4.68;;;18.60;64.20;;;;;;2081869;28;20040;-70
2023/06/12 02:18:48;;;;;;;7.18;5.10;;;18.50;63.60;;;;;;2081665;28;20492;-70
2023/06/12 02:19:49;;;;;;;6.60;5.55;;;18.50;64.30;;;;;;2083904;28;20021;-70
2023/06/12 02:20:50;;;;;;;7.80;5.15;;;18.50;64.40;;;;;;2083185;28;20512;-70
2023/06/12 02:21:50;;;;;;;5.07;4.57;;;18.50;64.30;;;;;;2082439;28;20377;-70
2023/06/12 02:22:51;;;;;;;5.85;4.90;;;18.50;64.00;;;;;;2081686;28;20029;-70
2023/06/12 02:23:52;;;;;;;5.40;4.82;;;18.50;64.30;;;;;;2082685;28;20022;-70
2023/06/12 02:24:52;;;;;;;5.30;4.30;;;18.50;64.20;;;;;;2082766;28;20191;-70
2023/06/12 02:25:53;;;;;;;8.77;5.18;;;18.50;64.60;;;;;;2082896;28;20470;-70
2023/06/12 02:26:53;;;;;;;6.45;4.97;;;18.50;64.80;;;;;;2081169;28;20032;-70
2023/06/12 02:27:54;;;;;;;5.30;4.47;;;18.50;65.30;;;;;;2081305;28;20033;-70
2023/06/12 02:29:12;;;;;;;5.07;4.22;;;18.50;65.50;;;;;;2084062;28;20039;-70
2023/06/12 02:30:13;;;;;;;6.00;4.95;;;18.50;67.10;;;;;;2083015;28;20071;-70
2023/06/12 02:31:13;;;;;;;6.72;5.18;;;18.40;65.80;;;;;;2086109;28;20087;-70
2023/06/12 02:32:14;;;;;;;7.05;5.03;;;18.40;64.80;;;;;;2084161;28;20480;-70
2023/06/12 02:33:15;;;;;;;4.15;3.85;;;18.40;64.80;;;;;;2081329;28;20171;-70
2023/06/12 02:34:15;;;;;;;5.47;4.93;;;18.40;64.00;;;;;;2081703;28;20029;-70
2023/06/12 02:35:16;;;;;;;6.35;5.20;;;18.40;64.30;;;;;;2084537;28;20108;-70
2023/06/12 02:36:16;;;;;;;6.10;4.80;;;18.40;65.30;;;;;;2083911;28;20044;-70
2023/06/12 02:37:17;;;;;;;5.35;4.85;;;18.40;64.80;;;;;;2083403;28;20018;-70
2023/06/12 02:38:17;;;;;;;6.82;4.90;;;18.40;65.00;;;;;;2083980;28;20049;-70
2023/06/12 02:39:18;;;;;;;4.78;4.38;;;18.40;64.70;;;;;;2084392;28;20033;-70
2023/06/12 02:40:19;;;;;;;5.47;4.57;;;18.30;64.80;;;;;;2083088;28;20048;-70
2023/06/12 02:41:19;;;;;;;5.38;4.88;;;18.40;64.80;;;;;;2083734;28;20029;-70
2023/06/12 02:42:20;;;;;;;8.55;4.35;;;18.40;64.60;;;;;;2084294;28;20477;-70
2023/06/12 02:43:21;;;;;;;8.43;4.85;;;18.40;65.10;;;;;;2084174;28;20151;-70
2023/06/12 02:44:21;;;;;;;7.50;4.60;;;18.40;65.50;;;;;;2082779;28;20033;-70
2023/06/12 02:45:23;;;;;;;6.93;4.03;;;18.40;65.60;;;;;;2083677;28;20100;-70
2023/06/12 02:46:24;;;;;;;5.85;4.60;;;18.40;65.60;;;;;;2083887;28;20045;-70
2023/06/12 02:47:24;;;;;;;5.10;3.95;;;18.40;65.70;;;;;;2084703;28;20029;-70
2023/06/12 02:48:25;;;;;;;5.30;4.50;;;18.30;65.00;;;;;;2083395;28;20056;-70
2023/06/12 02:49:27;;;;;;;4.90;4.32;;;18.40;65.10;;;;;;2082088;28;20078;-70
2023/06/12 02:50:28;;;;;;;5.00;4.53;;;18.30;65.00;;;;;;2084488;28;20033;-70
2023/06/12 02:51:28;;;;;;;5.28;4.32;;;18.30;65.60;;;;;;2084007;28;20104;-70
2023/06/12 02:52:29;;;;;;;6.95;4.13;;;18.40;65.30;;;;;;2084356;28;20476;-70
2023/06/12 02:53:31;;;;;;;4.25;3.85;;;18.30;64.70;;;;;;2085135;28;20461;-70
2023/06/12 02:54:32;;;;;;;5.60;4.68;;;18.30;65.40;;;;;;2083025;28;20019;-70
2023/06/12 02:55:39;;;;;;;5.75;4.97;;;18.30;65.70;;;;;;2083733;28;20037;-70
2023/06/12 02:56:45;;;;;;;10.82;4.45;;;18.30;66.00;;;;;;2082720;28;20447;-70
2023/06/12 02:57:45;;;;;;;4.68;4.28;;;18.30;65.50;;;;;;2083960;28;20393;-70
2023/06/12 02:58:46;;;;;;;4.88;4.45;;;18.30;64.90;;;;;;2082987;28;20104;-70
2023/06/12 02:59:46;;;;;;;4.07;3.67;;;18.30;65.20;;;;;;2082549;28;20044;-70
2023/06/12 03:00:47;;;;;;;5.82;4.63;;;18.30;66.50;;;;;;2081759;28;20032;-70
2023/06/12 03:01:47;;;;;;;4.90;4.40;;;18.30;66.00;;;;;;2083971;28;20017;-70
2023/06/12 03:02:49;;;;;;;5.40;4.55;;;18.30;66.10;;;;;;2082756;28;20028;-70
2023/06/12 03:03:50;;;;;;;5.55;4.65;;;18.30;66.00;;;;;;2083795;28;20045;-70
2023/06/12 03:04:52;;;;;;;4.93;4.18;;;18.30;66.40;;;;;;2083027;28;20036;-70
2023/06/12 03:05:53;;;;;;;6.60;5.07;;;18.30;66.70;;;;;;2084012;28;20013;-70
2023/06/12 03:06:53;;;;;;;4.40;3.83;;;18.30;66.70;;;;;;2083936;28;20473;-70
2023/06/12 03:07:54;;;;;;;4.43;4.03;;;18.30;66.70;;;;;;2081970;28;20824;-70
2023/06/12 03:08:55;;;;;;;4.28;3.88;;;18.30;66.40;;;;;;2082046;28;20908;-70
2023/06/12 03:09:56;;;;;;;4.35;3.95;;;18.30;66.00;;;;;;2082485;28;20055;-70
2023/06/12 03:10:56;;;;;;;5.43;4.57;;;18.30;66.80;;;;;;2084187;28;20168;-70
2023/06/12 03:11:57;;;;;;;4.75;4.22;;;18.30;67.10;;;;;;2076830;28;20494;-70
2023/06/12 03:12:58;;;;;;;6.88;4.63;;;18.30;66.50;;;;;;2085011;28;20036;-70
2023/06/12 03:13:58;;;;;;;4.10;3.80;;;18.30;66.40;;;;;;2086356;28;20116;-70
2023/06/12 03:15:00;;;;;;;6.13;4.07;;;18.30;66.70;;;;;;2084077;28;20036;-70
2023/06/12 03:16:00;;;;;;;4.78;4.28;;;18.30;66.40;;;;;;2083385;28;20032;-70
2023/06/12 03:17:01;;;;;;;4.15;3.70;;;18.30;65.50;;;;;;2083288;28;20029;-70
2023/06/12 03:18:01;;;;;;;4.43;4.03;;;18.30;65.30;;;;;;2083113;28;20548;-70
2023/06/12 03:19:02;;;;;;;4.95;3.83;;;18.30;66.00;;;;;;2082390;28;20124;-70
2023/06/12 03:20:05;;;;;;;4.22;3.83;;;18.30;66.00;;;;;;2081521;28;20029;-70
2023/06/12 03:21:06;;;;;;;6.28;4.32;;;18.30;66.10;;;;;;2080911;28;20033;-70
2023/06/12 03:22:07;;;;;;;4.85;4.15;;;18.30;66.30;;;;;;2082160;28;20053;-70
2023/06/12 03:23:07;;;;;;;4.43;4.03;;;18.30;65.90;;;;;;2083200;28;20025;-70
2023/06/12 03:24:08;;;;;;;4.60;4.20;;;18.30;66.10;;;;;;2082485;28;20037;-70
2023/06/12 03:25:10;;;;;;;5.38;4.05;;;18.30;65.90;;;;;;2081900;28;20021;-70
2023/06/12 03:26:11;;;;;;;5.90;4.03;;;18.30;67.30;;;;;;2082683;28;20022;-71
2023/06/12 03:27:13;;;;;;;4.63;4.22;;;18.30;67.30;;;;;;2085531;28;20056;-71
2023/06/12 03:28:14;;;;;;;5.20;4.53;;;18.30;67.10;;;;;;2086013;28;20028;-71
2023/06/12 03:29:15;;;;;;;4.30;3.90;;;18.30;67.10;;;;;;2082177;28;20481;-71
2023/06/12 03:30:16;;;;;;;4.47;4.07;;;18.30;66.20;;;;;;2083319;28;20392;-71
2023/06/12 03:31:16;;;;;;;4.78;4.30;;;18.30;66.70;;;;;;2082486;28;20018;-71
2023/06/12 03:32:17;;;;;;;6.72;4.45;;;18.30;67.40;;;;;;2082289;28;20017;-71
2023/06/12 03:33:17;;;;;;;6.57;4.50;;;18.30;67.50;;;;;;2084390;28;20203;-71
2023/06/12 03:34:18;;;;;;;4.55;4.00;;;18.30;67.50;;;;;;2084579;28;20021;-71
2023/06/12 03:35:20;;;;;;;5.18;4.22;;;18.30;67.30;;;;;;2082504;28;20055;-71
2023/06/12 03:36:23;;;;;;;4.18;3.78;;;18.30;67.60;;;;;;2081803;28;20048;-71
2023/06/12 03:37:27;;;;;;;5.40;4.20;;;18.30;66.70;;;;;;2083274;28;20120;-70
2023/06/12 03:38:28;;;;;;;4.45;4.05;;;18.30;67.00;;;;;;2083415;28;20059;-70
2023/06/12 03:39:28;;;;;;;4.40;4.00;;;18.30;66.60;;;;;;2085069;28;20100;-70
2023/06/12 03:40:29;;;;;;;5.65;4.05;;;18.30;66.90;;;;;;2081953;28;20465;-70
2023/06/12 03:41:31;;;;;;;3.90;3.60;;;18.30;67.10;;;;;;2081550;28;20037;-70
2023/06/12 03:42:32;;;;;;;4.53;3.63;;;18.30;67.90;;;;;;2082540;28;20530;-70
2023/06/12 03:43:32;;;;;;;5.40;4.00;;;18.30;67.50;;;;;;2084197;28;20419;-71
2023/06/12 03:44:33;;;;;;;5.15;4.55;;;18.30;68.00;;;;;;2083082;28;20032;-71
2023/06/12 03:45:33;;;;;;;5.82;4.43;;;18.30;67.60;;;;;;2083264;28;20493;-71
2023/06/12 03:46:34;;;;;;;9.88;5.07;;;18.30;68.30;;;;;;2083222;28;20025;-71
2023/06/12 03:47:34;;;;;;;4.43;4.13;;;18.30;68.90;;;;;;2084038;28;20025;-71
2023/06/12 03:48:35;;;;;;;5.68;4.45;;;18.30;69.10;;;;;;2083509;28;20018;-71
2023/06/12 03:49:35;;;;;;;5.35;4.85;;;18.30;69.40;;;;;;2082961;28;20067;-71
2023/06/12 03:50:36;;;;;;;5.47;4.47;;;18.30;69.30;;;;;;2082190;28;20045;-71
2023/06/12 03:51:37;;;;;;;4.20;3.78;;;18.30;69.40;;;;;;2083237;28;20021;-71
2023/06/12 03:52:37;;;;;;;6.32;4.43;;;18.30;69.60;;;;;;2081015;28;20057;-71
2023/06/12 03:53:39;;;;;;;4.50;4.10;;;18.30;69.60;;;;;;2082531;28;20029;-71
2023/06/12 03:54:39;;;;;;;4.82;4.20;;;18.30;68.50;;;;;;2081795;28;20017;-71
2023/06/12 03:55:40;;;;;;;6.03;4.43;;;18.40;68.90;;;;;;2083040;28;20017;-71
2023/06/12 03:56:41;;;;;;;4.68;4.15;;;18.40;69.10;;;;;;2083138;28;20388;-71
2023/06/12 03:57:42;;;;;;;4.30;3.88;;;18.40;69.60;;;;;;2081935;28;20100;-71
2023/06/12 03:58:42;;;;;;;4.63;4.22;;;18.50;68.90;;;;;;2083128;28;20120;-71
2023/06/12 03:59:43;;;;;;;5.03;4.53;;;18.50;69.40;;;;;;2083709;28;20021;-71
2023/06/12 04:00:47;;;;;;;6.38;4.72;;;18.60;70.20;;;;;;2083002;28;20458;-70
2023/06/12 04:01:48;;;;;;;4.40;3.90;;;18.60;70.40;;;;;;2085400;28;20703;-70
2023/06/12 04:02:48;;;;;;;5.45;4.05;;;18.70;69.80;;;;;;2082898;28;20484;-71
2023/06/12 04:03:49;;;;;;;4.95;4.03;;;18.70;70.40;;;;;;2081307;28;20032;-71
2023/06/12 04:04:51;;;;;;;5.35;4.35;;;18.80;70.90;;;;;;2083072;28;20633;-70
2023/06/12 04:05:51;;;;;;;4.40;4.00;;;18.90;70.50;;;;;;2081155;28;20083;-70
2023/06/12 04:06:53;;;;;;;4.68;4.18;;;19.00;70.20;;;;;;2083768;28;20132;-70
2023/06/12 04:07:53;;;;;;;5.90;4.50;;;19.10;70.30;;;;;;2081963;28;20021;-70
2023/06/12 04:08:54;;;;;;;4.95;3.88;;;19.20;70.40;;;;;;2081411;28;20112;-70
2023/06/12 04:09:54;;;;;;;6.03;3.92;;;19.40;70.60;;;;;;2082377;28;20029;-71
2023/06/12 04:10:55;;;;;;;4.97;4.47;;;19.50;69.40;;;;;;2083032;28;20091;-71
2023/06/12 04:11:56;;;;;;;4.32;3.92;;;19.70;68.30;;;;;;2082384;28;20126;-70
2023/06/12 04:12:56;;;;;;;6.07;4.38;;;19.90;68.20;;;;;;2081191;28;20464;-71
2023/06/12 04:13:57;;;;;;;4.80;4.28;;;20.10;68.40;;;;;;2081682;28;20031;-71
2023/06/12 04:14:57;;;;;;;4.85;4.35;;;20.30;67.00;;;;;;2084125;28;20029;-71
2023/06/12 04:15:58;;;;;;;5.35;4.15;;;20.60;66.20;;;;;;2083288;28;20366;-71
2023/06/12 04:16:59;;;;;;;5.47;4.43;;;20.80;64.80;;;;;;2082319;28;20079;-70
2023/06/12 04:17:59;;;;;;;8.07;5.07;;;21.00;65.50;;;;;;2082179;28;20026;-71
2023/06/12 04:19:03;;;;;;;7.80;4.40;;;21.20;64.60;;;;;;2083457;28;20029;-71
2023/06/12 04:20:06;;;;;;;4.93;4.30;;;21.30;62.70;;;;;;2082987;28;20075;-71
2023/06/12 04:21:07;;;;;;;6.28;4.65;;;21.50;61.90;;;;;;2082233;28;20040;-71
2023/06/12 04:22:12;;;;;;;4.60;4.15;;;21.70;61.70;;;;;;2083493;28;20018;-71
2023/06/12 04:23:16;;;;;;;9.07;4.30;;;21.80;61.00;;;;;;2082364;28;20037;-71
2023/06/12 04:24:16;;;;;;;4.47;3.88;;;22.00;60.80;;;;;;2082307;28;20033;-71
2023/06/12 04:25:17;;;;;;;4.75;4.30;;;22.10;60.70;;;;;;2082487;28;20737;-71
2023/06/12 04:26:20;;;;;;;5.28;4.45;;;22.20;59.60;;;;;;2081888;28;20108;-71
2023/06/12 04:27:21;;;;;;;4.97;4.38;;;22.20;59.40;;;;;;2082601;28;20084;-71
2023/06/12 04:28:22;;;;;;;7.53;4.25;;;22.10;60.50;;;;;;2080951;28;20017;-71
2023/06/12 04:29:24;;;;;;;5.43;4.47;;;22.10;59.90;;;;;;2081812;28;20049;-71
2023/06/12 04:30:25;;;;;;;4.65;3.83;;;22.00;60.60;;;;;;2081239;28;20111;-71
2023/06/12 04:31:30;;;;;;;4.65;4.25;;;22.00;61.10;;;;;;2082411;28;20044;-71
2023/06/12 04:32:31;;;;;;;7.70;4.75;;;22.00;61.70;;;;;;2081658;28;20033;-71
2023/06/12 04:33:35;;;;;;;5.38;4.20;;;22.00;61.90;;;;;;2083423;28;20095;-71
2023/06/12 04:34:43;;;;;;;5.65;4.32;;;21.90;61.30;;;;;;2083516;28;20010;-71
2023/06/12 04:35:46;;;;;;;5.15;4.25;;;21.90;62.20;;;;;;2082495;28;20027;-71
2023/06/12 04:36:47;;;;;;;4.57;3.97;;;21.90;62.50;;;;;;2081796;28;20626;-71
2023/06/12 04:37:52;;;;;;;4.68;3.75;;;21.90;61.80;;;;;;2085297;28;20022;-71
2023/06/12 04:38:52;;;;;;;4.72;4.32;;;21.90;62.40;;;;;;2084706;28;20090;-71
2023/06/12 04:39:53;;;;;;;4.20;3.80;;;22.00;63.00;;;;;;2080814;28;20074;-71
2023/06/12 04:40:54;;;;;;;7.18;4.15;;;22.00;63.80;;;;;;2083110;28;20022;-71
2023/06/12 04:41:56;;;;;;;5.18;3.95;;;22.00;64.20;;;;;;2082763;28;20064;-71
2023/06/12 04:42:57;;;;;;;6.20;4.82;;;22.10;64.70;;;;;;2082892;28;20037;-71
2023/06/12 04:44:03;;;;;;;6.95;4.25;;;22.10;65.10;;;;;;2084170;28;20681;-71
2023/06/12 04:45:08;;;;;;;5.32;4.72;;;22.20;64.40;;;;;;2082770;28;20048;-71
2023/06/12 04:46:09;;;;;;;4.45;4.05;;;22.20;63.30;;;;;;2083639;28;20033;-71
2023/06/12 04:47:11;;;;;;;4.80;4.20;;;22.20;62.80;;;;;;2082987;28;20104;-71
2023/06/12 04:48:12;;;;;;;9.43;4.47;;;22.30;62.80;;;;;;2083762;28;20025;-71
2023/06/12 04:49:13;;;;;;;4.20;3.80;;;22.30;62.30;;;;;;2085978;28;20032;-71
2023/06/12 04:50:13;;;;;;;7.68;4.47;;;22.30;62.10;;;;;;2084839;28;20099;-71
2023/06/12 04:51:14;;;;;;;4.65;4.25;;;22.40;61.50;;;;;;2081926;28;20024;-71
2023/06/12 04:52:17;;;;;;;5.00;4.53;;;22.50;62.30;;;;;;2084114;28;20030;-71
2023/06/12 04:53:18;;;;;;;4.22;3.88;;;22.50;63.00;;;;;;2082614;28;20029;-71
2023/06/12 04:54:19;;;;;;;5.38;4.45;;;22.60;63.30;;;;;;2083824;28;20028;-71
2023/06/12 04:55:22;;;;;;;6.10;5.10;;;22.60;62.80;;;;;;2083149;28;20018;-71
2023/06/12 04:56:23;;;;;;;5.68;4.57;;;22.70;61.50;;;;;;2080497;28;20025;-71
2023/06/12 04:57:23;;;;;;;7.93;4.45;;;22.70;60.80;;;;;;2081936;28;20552;-71
2023/06/12 04:58:24;;;;;;;6.03;4.63;;;22.70;60.20;;;;;;2082666;28;20679;-71
2023/06/12 04:59:26;;;;;;;8.60;4.45;;;22.80;61.00;;;;;;2082934;28;20392;-71
2023/06/12 05:00:28;;;;;;;6.03;4.68;;;22.80;59.60;;;;;;2082522;28;20029;-71
2023/06/12 05:01:30;;;;;;;5.55;4.70;;;22.90;60.40;;;;;;2082101;28;20029;-71
2023/06/12 05:02:33;;;;;;;5.13;4.57;;;23.00;60.30;;;;;;2082322;28;20032;-71
2023/06/12 05:03:33;;;;;;;5.70;4.25;;;23.00;59.70;;;;;;2082971;28;20017;-71
2023/06/12 05:04:38;;;;;;;6.72;4.68;;;23.00;59.50;;;;;;2082155;28;20039;-71
2023/06/12 05:05:38;;;;;;;4.63;4.22;;;23.10;59.70;;;;;;2079533;28;20040;-71
2023/06/12 05:06:42;;;;;;;6.80;4.50;;;23.20;59.50;;;;;;2083526;28;20044;-71
2023/06/12 05:07:45;;;;;;;6.68;4.07;;;23.30;59.90;;;;;;2082914;28;20472;-71
2023/06/12 05:08:46;;;;;;;5.20;4.35;;;23.30;60.20;;;;;;2081495;28;20048;-71
2023/06/12 05:09:46;;;;;;;6.22;4.45;;;23.40;59.70;;;;;;2083073;28;20029;-71
2023/06/12 05:10:47;;;;;;;5.50;4.68;;;23.40;60.10;;;;;;2081920;28;20032;-71
2023/06/12 05:11:48;;;;;;;5.20;4.65;;;23.50;59.20;;;;;;2085374;28;20448;-71
2023/06/12 05:12:48;;;;;;;5.93;4.88;;;23.50;58.90;;;;;;2083631;28;20055;-71
2023/06/12 05:13:48;;;;;;;6.53;4.43;;;23.60;59.10;;;;;;2082519;28;20203;-71
2023/06/12 05:14:49;;;;;;;6.50;4.72;;;23.70;58.60;;;;;;2082691;28;20090;-71
2023/06/12 05:15:50;;;;;;;7.78;4.35;;;23.70;58.00;;;;;;2080264;28;20017;-71
2023/06/12 05:16:51;;;;;;;4.95;4.45;;;23.70;58.00;;;;;;2084609;28;20025;-71
2023/06/12 05:17:51;;;;;;;9.48;4.82;;;23.80;58.40;;;;;;2085036;28;20992;-71
2023/06/12 05:18:52;;;;;;;5.60;4.47;;;23.90;58.10;;;;;;2085288;28;20424;-71
2023/06/12 05:19:52;;;;;;;5.18;4.32;;;23.90;58.60;;;;;;2081020;28;20028;-71
2023/06/12 05:20:53;;;;;;;5.75;4.70;;;24.00;58.30;;;;;;2081077;28;20120;-71
2023/06/12 05:21:54;;;;;;;5.43;3.95;;;24.00;58.30;;;;;;2082153;28;20021;-71
2023/06/12 05:22:55;;;;;;;8.15;5.03;;;24.10;58.10;;;;;;2082190;28;20033;-71
2023/06/12 05:23:55;;;;;;;5.30;3.83;;;24.10;58.20;;;;;;2084286;28;20016;-71